createdAt,value
2019-01-23T00:00:31.884Z,41.43
2019-01-23T00:03:00.564Z,37.83
2019-01-23T00:05:29.259Z,37.67
2019-01-23T00:07:58.111Z,38.17
2019-01-23T00:10:26.799Z,35.53
2019-01-23T00:12:55.474Z,42.63
2019-01-23T00:15:24.230Z,41.83
2019-01-23T00:17:52.894Z,45.83
2019-01-23T00:20:21.565Z,41.63
2019-01-23T00:22:50.336Z,39.10
2019-01-23T00:25:19.017Z,39.77
2019-01-23T00:27:47.701Z,43.20
2019-01-23T00:30:17.360Z,42.93
2019-01-23T00:32:46.068Z,45.03
2019-01-23T00:35:14.865Z,57.50
2019-01-23T00:37:43.683Z,43.70
2019-01-23T00:40:16.746Z,49.27
2019-01-23T00:42:45.411Z,44.83
2019-01-23T00:45:16.254Z,43.73
2019-01-23T00:47:45.042Z,50.97
2019-01-23T00:50:15.076Z,51.33
2019-01-23T00:52:44.317Z,43.57
2019-01-23T00:55:15.750Z,42.77
2019-01-23T00:57:44.443Z,44.47
2019-01-23T01:00:27.662Z,43.63
2019-01-23T01:02:56.634Z,44.23
2019-01-23T01:05:25.313Z,43.73
2019-01-23T01:07:54.082Z,49.20
2019-01-23T01:10:22.768Z,50.50
2019-01-23T01:12:51.454Z,48.87
2019-01-23T01:15:20.388Z,44.97
2019-01-23T01:17:49.079Z,44.53
2019-01-23T01:20:17.858Z,42.80
2019-01-23T01:22:46.886Z,41.53
2019-01-23T01:25:17.464Z,41.80
2019-01-23T01:27:47.575Z,44.43
2019-01-23T01:30:21.538Z,41.37
2019-01-23T01:32:50.227Z,42.83
2019-01-23T01:35:18.893Z,42.40
2019-01-23T01:37:48.128Z,44.67
2019-01-23T01:40:18.996Z,43.53
2019-01-23T01:42:47.800Z,44.83
2019-01-23T01:45:17.612Z,46.07
2019-01-23T01:47:46.393Z,46.33
2019-01-23T01:50:17.443Z,45.37
2019-01-23T01:52:46.315Z,43.53
2019-01-23T01:55:15.095Z,45.57
2019-01-23T01:57:43.972Z,38.03
2019-01-23T02:00:18.482Z,36.23
2019-01-23T02:02:47.160Z,35.17
2019-01-23T02:05:15.930Z,35.53
2019-01-23T02:07:45.037Z,36.83
2019-01-23T02:10:19.236Z,37.33
2019-01-23T02:12:48.407Z,38.00
2019-01-23T02:15:17.852Z,36.63
2019-01-23T02:17:46.576Z,35.17
2019-01-23T02:20:24.830Z,38.50
2019-01-23T02:22:53.615Z,37.00
2019-01-23T02:25:22.391Z,39.20
2019-01-23T02:27:51.222Z,39.53
2019-01-23T02:30:21.907Z,37.23
2019-01-23T02:32:50.587Z,36.20
2019-01-23T02:35:19.444Z,34.60
2019-01-23T02:37:48.117Z,33.70
2019-01-23T02:40:21.229Z,33.07
2019-01-23T02:42:49.969Z,35.03
2019-01-23T02:45:19.227Z,36.07
2019-01-23T02:47:48.601Z,36.27
2019-01-23T02:50:17.548Z,33.33
2019-01-23T02:52:46.220Z,32.97
2019-01-23T02:55:14.898Z,34.73
2019-01-23T02:57:43.712Z,33.23
2019-01-23T03:00:20.002Z,38.07
2019-01-23T03:02:50.106Z,45.17
2019-01-23T03:05:19.587Z,43.20
2019-01-23T03:07:48.258Z,40.90
2019-01-23T03:10:19.104Z,35.97
2019-01-23T03:12:47.985Z,36.00
2019-01-23T03:15:17.672Z,34.17
2019-01-23T03:17:46.405Z,35.47
2019-01-23T03:20:17.009Z,31.57
2019-01-23T03:22:45.762Z,32.63
2019-01-23T03:25:15.675Z,33.80
2019-01-23T03:27:44.467Z,34.77
2019-01-23T03:30:18.948Z,35.07
2019-01-23T03:32:48.161Z,36.63
2019-01-23T03:35:16.834Z,36.77
2019-01-23T03:37:45.519Z,37.07
2019-01-23T03:40:16.678Z,37.97
2019-01-23T03:42:45.363Z,36.23
2019-01-23T03:45:15.656Z,35.80
2019-01-23T03:47:44.754Z,36.20
2019-01-23T03:50:15.937Z,36.13
2019-01-23T03:52:44.622Z,36.80
2019-01-23T03:55:15.023Z,34.97
2019-01-23T03:57:43.705Z,35.47
2019-01-23T04:00:18.507Z,40.07
2019-01-23T04:02:47.919Z,39.33
2019-01-23T04:05:16.805Z,38.37
2019-01-23T04:07:46.551Z,39.70
2019-01-23T04:10:17.252Z,39.67
2019-01-23T04:12:46.023Z,38.93
2019-01-23T04:15:18.829Z,39.30
2019-01-23T04:17:48.086Z,35.00
2019-01-23T04:20:21.014Z,40.83
2019-01-23T04:22:49.899Z,37.33
2019-01-23T04:25:18.735Z,43.40
2019-01-23T04:27:47.426Z,55.47
2019-01-23T04:30:24.031Z,48.70
2019-01-23T04:32:52.707Z,62.23
2019-01-23T04:35:21.377Z,41.50
2019-01-23T04:37:50.188Z,56.57
2019-01-23T04:40:18.982Z,102.00
2019-01-23T04:42:47.648Z,51.77
2019-01-23T04:45:17.908Z,44.50
2019-01-23T04:47:46.585Z,53.63
2019-01-23T04:50:16.869Z,92.30
2019-01-23T04:53:02.641Z,57.77
2019-01-23T04:55:32.223Z,60.77
2019-01-23T04:58:00.907Z,53.37
2019-01-23T05:00:31.636Z,54.17
2019-01-23T05:03:00.309Z,36.63
2019-01-23T05:05:28.985Z,39.37
2019-01-23T05:07:57.788Z,49.70
2019-01-23T05:10:26.476Z,43.23
2019-01-23T05:12:55.152Z,34.80
2019-01-23T05:15:23.874Z,34.93
2019-01-23T05:17:52.543Z,34.87
2019-01-23T05:20:21.224Z,35.60
2019-01-23T05:22:49.966Z,41.83
2019-01-23T05:25:18.635Z,37.37
2019-01-23T05:27:52.829Z,38.80
2019-01-23T05:30:23.650Z,35.83
2019-01-23T05:32:52.334Z,36.17
2019-01-23T05:35:21.114Z,36.50
2019-01-23T05:37:49.880Z,39.47
2019-01-23T05:40:18.658Z,43.23
2019-01-23T05:42:47.988Z,42.47
2019-01-23T05:45:16.722Z,40.27
2019-01-23T05:47:45.513Z,40.63
2019-01-23T05:50:16.937Z,39.77
2019-01-23T05:52:47.897Z,34.23
2019-01-23T05:55:16.580Z,33.70
2019-01-23T05:57:45.265Z,48.50
2019-01-23T06:00:16.740Z,53.70
2019-01-23T06:02:45.418Z,49.20
2019-01-23T06:05:14.502Z,44.43
2019-01-23T06:07:43.230Z,39.77
2019-01-23T06:10:12.211Z,46.87
2019-01-23T06:12:40.889Z,39.57
2019-01-23T06:15:12.112Z,46.00
2019-01-23T06:17:40.801Z,42.23
2019-01-23T06:20:18.647Z,47.43
2019-01-23T06:22:47.416Z,44.23
2019-01-23T06:25:16.107Z,45.70
2019-01-23T06:27:44.947Z,52.30
2019-01-23T06:30:19.129Z,50.77
2019-01-23T06:32:48.005Z,49.90
2019-01-23T06:35:16.758Z,48.87
2019-01-23T06:37:45.461Z,43.33
2019-01-23T06:40:16.644Z,40.77
2019-01-23T06:42:45.442Z,37.63
2019-01-23T06:45:15.920Z,38.20
2019-01-23T06:47:44.794Z,42.03
2019-01-23T06:50:16.207Z,57.17
2019-01-23T06:52:44.987Z,55.37
2019-01-23T06:55:14.070Z,44.07
2019-01-23T06:57:43.465Z,42.93
2019-01-23T07:00:17.264Z,39.87
2019-01-23T07:02:45.660Z,40.37
2019-01-23T07:05:14.512Z,40.53
2019-01-23T07:07:43.183Z,43.60
2019-01-23T07:10:14.782Z,47.47
2019-01-23T07:12:43.496Z,41.43
2019-01-23T07:15:12.771Z,49.73
2019-01-23T07:17:41.452Z,49.63
2019-01-23T07:20:13.451Z,51.03
2019-01-23T07:22:42.136Z,40.33
2019-01-23T07:25:11.115Z,38.13
2019-01-23T07:27:45.754Z,39.40
2019-01-23T07:30:29.186Z,39.60
2019-01-23T07:32:57.907Z,36.57
2019-01-23T07:35:26.586Z,38.03
2019-01-23T07:37:55.261Z,36.97
2019-01-23T07:40:24.098Z,36.20
2019-01-23T07:42:52.787Z,37.30
2019-01-23T07:45:23.967Z,40.83
2019-01-23T07:47:54.793Z,37.87
2019-01-23T07:50:23.465Z,51.07
2019-01-23T07:52:52.242Z,42.90
2019-01-23T07:55:21.780Z,40.87
2019-01-23T07:57:50.460Z,46.33
2019-01-23T08:00:21.447Z,45.60
2019-01-23T08:02:50.675Z,42.80
2019-01-23T08:05:21.987Z,42.43
2019-01-23T08:07:50.787Z,43.70
2019-01-23T08:10:20.496Z,46.53
2019-01-23T08:12:49.354Z,42.47
2019-01-23T08:15:20.763Z,41.17
2019-01-23T08:17:49.668Z,40.10
2019-01-23T08:20:21.324Z,43.80
2019-01-23T08:22:49.994Z,39.47
2019-01-23T08:25:19.546Z,39.87
2019-01-23T08:27:48.224Z,45.50
2019-01-23T08:30:19.321Z,45.23
2019-01-23T08:32:48.179Z,65.20
2019-01-23T08:35:17.062Z,56.10
2019-01-23T08:37:45.828Z,39.13
2019-01-23T08:40:16.572Z,38.60
2019-01-23T08:42:45.349Z,41.90
2019-01-23T08:45:14.927Z,40.90
2019-01-23T08:47:43.870Z,40.03
2019-01-23T08:50:27.461Z,41.80
2019-01-23T08:52:56.213Z,41.37
2019-01-23T08:55:24.899Z,41.70
2019-01-23T08:57:53.584Z,54.43
2019-01-23T09:00:22.408Z,39.93
2019-01-23T09:02:51.094Z,55.30
2019-01-23T09:05:19.782Z,50.30
2019-01-23T09:07:49.585Z,51.83
2019-01-23T09:10:27.677Z,46.20
2019-01-23T09:12:56.443Z,50.30
2019-01-23T09:15:25.222Z,49.77
2019-01-23T09:17:53.898Z,41.20
2019-01-23T09:20:23.438Z,39.30
2019-01-23T09:22:52.106Z,37.60
2019-01-23T09:25:25.936Z,32.60
2019-01-23T09:27:54.758Z,36.63
2019-01-23T09:30:45.285Z,35.13
2019-01-23T09:33:35.421Z,38.00
2019-01-23T09:36:11.195Z,38.20
2019-01-23T09:38:54.912Z,37.40
2019-01-23T09:41:40.833Z,37.43
2019-01-23T09:44:22.035Z,35.07
2019-01-23T09:47:02.735Z,36.80
2019-01-23T09:49:37.324Z,37.77
2019-01-23T09:52:14.889Z,35.67
2019-01-23T09:54:43.736Z,32.53
2019-01-23T09:57:12.425Z,27.57
2019-01-23T09:59:41.114Z,30.93
2019-01-23T10:02:10.182Z,30.53
2019-01-23T10:04:38.856Z,30.20
2019-01-23T10:07:07.561Z,26.87
2019-01-23T10:09:36.661Z,25.40
2019-01-23T10:12:05.651Z,26.43
2019-01-23T10:14:34.319Z,25.73
2019-01-23T10:17:03.362Z,24.50
2019-01-23T10:19:32.031Z,19.90
2019-01-23T10:22:00.719Z,20.17
2019-01-23T10:24:35.713Z,21.10
2019-01-23T10:27:00.094Z,20.40
2019-01-23T10:29:28.867Z,20.10
2019-01-23T10:31:57.699Z,20.43
2019-01-23T10:34:26.374Z,20.33
2019-01-23T10:36:55.054Z,18.83
2019-01-23T10:39:23.910Z,19.23
2019-01-23T10:41:52.599Z,20.50
2019-01-23T10:44:21.283Z,21.30
2019-01-23T10:46:50.115Z,20.17
2019-01-23T10:49:18.792Z,21.40
2019-01-23T10:51:47.468Z,22.00
2019-01-23T10:54:16.210Z,51.60
2019-01-23T10:56:44.887Z,33.97
2019-01-23T10:59:13.568Z,55.33
2019-01-23T11:01:42.341Z,130.13
2019-01-23T11:04:11.025Z,35.10
2019-01-23T11:06:39.704Z,30.73
2019-01-23T11:09:08.648Z,46.47
2019-01-23T11:11:37.356Z,78.83
2019-01-23T11:14:06.040Z,72.27
2019-01-23T11:16:34.798Z,82.53
2019-01-23T11:19:03.480Z,309.00
2019-01-23T11:21:32.167Z,32.10
2019-01-23T11:24:00.887Z,35.47
2019-01-23T11:26:29.563Z,40.43
2019-01-23T11:28:58.254Z,67.00
2019-01-23T11:31:27.066Z,48.90
2019-01-23T11:33:55.747Z,32.67
2019-01-23T11:36:24.423Z,31.80
2019-01-23T11:38:53.255Z,43.67
2019-01-23T11:41:21.933Z,34.23
2019-01-23T11:43:50.622Z,29.50
2019-01-23T11:46:19.390Z,29.70
2019-01-23T11:48:48.070Z,25.40
2019-01-23T11:51:16.850Z,24.70
2019-01-23T11:53:45.698Z,25.70
2019-01-23T11:56:14.395Z,25.70
2019-01-23T11:58:43.055Z,25.33
2019-01-23T12:01:11.893Z,26.40
2019-01-23T12:03:40.585Z,25.00
2019-01-23T12:06:09.252Z,26.40
2019-01-23T12:08:38.066Z,25.83
2019-01-23T12:11:06.742Z,26.20
2019-01-23T12:13:35.430Z,26.27
2019-01-23T12:16:04.696Z,26.73
2019-01-23T12:18:33.385Z,26.57
2019-01-23T12:21:02.059Z,27.70
2019-01-23T12:23:31.366Z,27.47
2019-01-23T12:26:00.035Z,27.40
2019-01-23T12:28:28.708Z,29.43
2019-01-23T12:30:57.440Z,28.67
2019-01-23T12:33:26.113Z,29.07
2019-01-23T12:35:54.778Z,28.93
2019-01-23T12:38:23.543Z,30.03
2019-01-23T12:40:52.237Z,32.13
2019-01-23T12:43:20.904Z,30.17
2019-01-23T12:45:50.068Z,30.30
2019-01-23T12:48:18.752Z,30.33
2019-01-23T12:50:47.434Z,29.37
2019-01-23T12:53:16.467Z,29.07
2019-01-23T12:55:45.135Z,30.40
2019-01-23T12:58:13.806Z,29.57
2019-01-23T13:00:42.757Z,30.47
2019-01-23T13:03:11.454Z,31.30
2019-01-23T13:05:40.142Z,30.90
2019-01-23T13:08:08.967Z,31.43
2019-01-23T13:10:37.650Z,33.77
2019-01-23T13:13:06.377Z,36.17
2019-01-23T13:15:35.225Z,36.20
2019-01-23T13:18:04.014Z,37.13
2019-01-23T13:20:32.722Z,35.40
2019-01-23T13:23:01.635Z,39.30
2019-01-23T13:25:30.620Z,36.27
2019-01-23T13:28:01.200Z,37.33
2019-01-23T13:30:30.042Z,38.93
2019-01-23T13:32:58.706Z,37.80
2019-01-23T13:35:30.090Z,38.40
2019-01-23T13:37:58.999Z,38.17
2019-01-23T13:40:32.972Z,38.77
2019-01-23T13:43:01.748Z,40.63
2019-01-23T13:45:30.728Z,41.87
2019-01-23T13:47:59.511Z,44.17
2019-01-23T13:50:28.189Z,43.00
2019-01-23T13:52:57.444Z,43.23
2019-01-23T13:55:26.323Z,41.87
2019-01-23T13:57:54.997Z,41.47
2019-01-23T14:00:29.499Z,40.80
2019-01-23T14:02:58.279Z,43.43
2019-01-23T14:05:26.962Z,41.07
2019-01-23T14:07:55.796Z,40.53
2019-01-23T14:10:24.683Z,40.87
2019-01-23T14:12:53.554Z,41.63
2019-01-23T14:15:27.802Z,41.67
2019-01-23T14:17:56.478Z,44.00
2019-01-23T14:20:26.288Z,45.63
2019-01-23T14:22:55.131Z,45.33
2019-01-23T14:25:23.820Z,43.57
2019-01-23T14:27:52.507Z,43.57
2019-01-23T14:30:27.748Z,43.93
2019-01-23T14:32:56.531Z,47.77
2019-01-23T14:35:25.220Z,59.77
2019-01-23T14:38:00.575Z,65.80
2019-01-23T14:40:24.697Z,64.17
2019-01-23T14:42:53.384Z,63.17
2019-01-23T14:45:22.320Z,54.70
2019-01-23T14:47:51.009Z,82.10
2019-01-23T14:50:20.991Z,52.77
2019-01-23T14:52:50.423Z,45.57
2019-01-23T14:55:19.119Z,68.67
2019-01-23T14:57:48.003Z,55.80
2019-01-23T15:00:28.557Z,56.20
2019-01-23T15:02:57.237Z,60.67
2019-01-23T15:05:26.001Z,62.27
2019-01-23T15:07:55.138Z,57.17
2019-01-23T15:10:33.647Z,62.90
2019-01-23T15:13:02.842Z,59.23
2019-01-23T15:15:31.516Z,62.03
2019-01-23T15:18:00.197Z,55.40
2019-01-23T15:20:37.402Z,53.40
2019-01-23T15:23:06.290Z,54.07
2019-01-23T15:25:35.277Z,71.93
2019-01-23T15:28:04.390Z,61.67
2019-01-23T15:30:33.071Z,57.23
2019-01-23T15:33:01.760Z,74.77
2019-01-23T15:35:30.583Z,67.03
2019-01-23T15:37:59.261Z,63.40
2019-01-23T15:40:32.971Z,46.23
2019-01-23T15:43:01.695Z,47.53
2019-01-23T15:45:30.380Z,60.83
2019-01-23T15:47:59.065Z,56.50
2019-01-23T15:50:28.691Z,55.17
2019-01-23T15:52:57.381Z,56.27
2019-01-23T15:55:26.366Z,66.83
2019-01-23T15:57:56.096Z,69.50
2019-01-23T16:00:30.535Z,70.20
2019-01-23T16:02:59.311Z,72.30
2019-01-23T16:05:28.084Z,63.30
2019-01-23T16:07:56.769Z,64.77
2019-01-23T16:10:27.240Z,70.77
2019-01-23T16:12:56.168Z,71.57
2019-01-23T16:15:27.221Z,78.27
2019-01-23T16:17:57.516Z,66.40
2019-01-23T16:20:26.624Z,61.97
2019-01-23T16:22:55.509Z,53.50
2019-01-23T16:25:24.180Z,75.43
2019-01-23T16:27:52.943Z,75.03
2019-01-23T16:30:24.671Z,72.53
2019-01-23T16:32:53.465Z,99.27
2019-01-23T16:35:22.396Z,80.27
2019-01-23T16:37:51.184Z,88.47
2019-01-23T16:40:19.869Z,81.00
2019-01-23T16:42:48.818Z,85.83
2019-01-23T16:45:21.663Z,91.13
2019-01-23T16:47:50.347Z,88.23
2019-01-23T16:50:27.379Z,78.23
2019-01-23T16:52:56.054Z,118.33
2019-01-23T16:55:24.937Z,90.10
2019-01-23T16:57:54.547Z,130.13
2019-01-23T17:00:25.806Z,130.27
2019-01-23T17:02:54.820Z,137.77
2019-01-23T17:05:29.653Z,141.70
2019-01-23T17:08:00.148Z,101.60
2019-01-23T17:10:29.229Z,115.73
2019-01-23T17:12:58.136Z,99.87
2019-01-23T17:15:26.922Z,101.20
2019-01-23T17:17:55.608Z,111.50
2019-01-23T17:20:33.541Z,117.83
2019-01-23T17:23:02.275Z,98.00
2019-01-23T17:25:30.960Z,142.80
2019-01-23T17:28:00.044Z,122.40
2019-01-23T17:30:28.822Z,83.07
2019-01-23T17:32:57.508Z,67.90
2019-01-23T17:35:26.489Z,110.00
2019-01-23T17:37:55.156Z,96.97
2019-01-23T17:40:25.057Z,115.10
2019-01-23T17:42:53.876Z,84.50
2019-01-23T17:45:30.975Z,100.97
2019-01-23T17:48:00.314Z,73.83
2019-01-23T17:50:29.095Z,95.10
2019-01-23T17:52:57.787Z,100.87
2019-01-23T17:55:32.299Z,98.67
2019-01-23T17:58:00.984Z,95.00
2019-01-23T18:00:32.805Z,63.33
2019-01-23T18:03:01.569Z,59.03
2019-01-23T18:05:30.249Z,52.73
2019-01-23T18:07:58.986Z,49.07
2019-01-23T18:10:27.669Z,45.20
2019-01-23T18:12:56.452Z,47.77
2019-01-23T18:15:31.269Z,48.70
2019-01-23T18:17:59.953Z,56.13
2019-01-23T18:20:29.834Z,62.43
2019-01-23T18:22:58.989Z,56.63
2019-01-23T18:25:27.870Z,65.00
2019-01-23T18:27:56.556Z,59.83
2019-01-23T18:30:28.245Z,52.73
2019-01-23T18:33:00.171Z,54.00
2019-01-23T18:35:31.054Z,68.13
2019-01-23T18:38:02.701Z,70.03
2019-01-23T18:40:56.242Z,66.67
2019-01-23T18:43:53.756Z,83.17
2019-01-23T18:46:52.720Z,70.50
2019-01-23T18:49:59.311Z,58.33
2019-01-23T18:52:27.993Z,61.57
2019-01-23T18:54:56.682Z,97.57
2019-01-23T18:57:32.894Z,94.93
2019-01-23T19:00:01.586Z,111.97
2019-01-23T19:02:30.380Z,99.77
2019-01-23T19:04:59.106Z,145.73
2019-01-23T19:07:33.706Z,78.97
2019-01-23T19:10:02.378Z,93.43
2019-01-23T19:12:31.301Z,197.27
2019-01-23T19:15:01.406Z,107.33
2019-01-23T19:17:30.086Z,90.70
2019-01-23T19:19:58.867Z,75.13
2019-01-23T19:22:27.548Z,90.37
2019-01-23T19:24:56.240Z,108.03
2019-01-23T19:27:28.612Z,132.70
2019-01-23T19:29:57.307Z,113.97
2019-01-23T19:32:26.041Z,96.77
2019-01-23T19:34:54.903Z,95.73
2019-01-23T19:37:23.617Z,112.37
2019-01-23T19:39:52.318Z,112.00
2019-01-23T19:42:21.476Z,119.40
2019-01-23T19:47:53.146Z,98.30
2019-01-23T19:50:21.984Z,98.63
2019-01-23T19:52:50.686Z,119.77
2019-01-23T19:55:19.867Z,164.43
2019-01-23T19:57:48.670Z,139.07
2019-01-23T20:00:23.092Z,150.57
2019-01-23T20:02:51.768Z,137.93
2019-01-23T20:05:26.099Z,129.53
2019-01-23T20:07:55.043Z,123.13
2019-01-23T20:10:32.020Z,128.07
2019-01-23T20:13:04.287Z,128.33
2019-01-23T20:15:32.976Z,103.30
2019-01-23T20:18:19.672Z,96.43
2019-01-23T20:20:48.640Z,102.23
2019-01-23T20:23:18.142Z,75.53
2019-01-23T20:25:47.180Z,74.43
2019-01-23T20:28:25.297Z,73.80
2019-01-23T20:30:56.108Z,78.33
2019-01-23T20:33:28.214Z,71.97
2019-01-23T20:36:03.958Z,81.67
2019-01-23T20:38:33.982Z,119.00
2019-01-23T20:41:02.689Z,97.97
2019-01-23T20:43:31.597Z,103.63
2019-01-23T20:46:00.300Z,95.33
2019-01-23T20:48:30.627Z,79.67
2019-01-23T20:51:01.750Z,73.90
2019-01-23T20:53:30.483Z,66.47
2019-01-23T20:55:59.163Z,93.87
2019-01-23T20:58:27.907Z,103.13
2019-01-23T21:00:56.586Z,129.53
2019-01-23T21:03:25.276Z,107.93
2019-01-23T21:05:54.380Z,163.33
2019-01-23T21:08:23.139Z,141.43
2019-01-23T21:10:59.312Z,95.23
2019-01-23T21:13:28.367Z,73.63
2019-01-23T21:15:57.049Z,87.73
2019-01-23T21:18:36.154Z,72.00
2019-01-23T21:21:04.937Z,80.07
2019-01-23T21:23:33.631Z,70.03
2019-01-23T21:26:02.557Z,40.37
2019-01-23T21:28:31.233Z,30.13
2019-01-23T21:31:00.058Z,33.10
2019-01-23T21:33:29.180Z,44.60
2019-01-23T21:35:57.872Z,10.80
2019-01-23T21:38:26.552Z,9.40
2019-01-23T21:40:55.634Z,9.97
2019-01-23T21:43:24.329Z,11.40
2019-01-23T21:45:53.080Z,11.60
2019-01-23T21:48:21.898Z,9.20
2019-01-23T21:50:50.590Z,8.83
2019-01-23T21:53:19.250Z,8.37
2019-01-23T21:55:49.088Z,8.67
2019-01-23T21:58:17.770Z,8.63
2019-01-23T22:00:46.549Z,8.43
2019-01-23T22:03:15.817Z,7.70
2019-01-23T22:05:44.492Z,7.57
2019-01-23T22:08:14.520Z,7.23
2019-01-23T22:10:43.385Z,7.37
2019-01-23T22:13:12.135Z,7.40
2019-01-23T22:15:40.799Z,7.13
2019-01-23T22:18:09.602Z,6.50
2019-01-23T22:20:38.284Z,5.93
2019-01-23T22:23:06.965Z,6.30
2019-01-23T22:25:35.808Z,5.87
2019-01-23T22:28:04.894Z,6.57
2019-01-23T22:30:34.775Z,6.53
2019-01-23T22:33:04.137Z,6.80
2019-01-23T22:35:32.807Z,6.07
2019-01-23T22:38:01.478Z,5.97
2019-01-23T22:40:30.261Z,6.10
2019-01-23T22:42:58.898Z,5.90
2019-01-23T22:45:27.569Z,6.20
2019-01-23T22:47:56.365Z,5.80
2019-01-23T22:50:26.839Z,5.30
2019-01-23T22:52:55.506Z,5.17
2019-01-23T22:55:24.323Z,5.67
2019-01-23T22:57:53.008Z,4.73
2019-01-23T23:00:24.927Z,3.80
2019-01-23T23:02:53.949Z,4.47
2019-01-23T23:05:22.617Z,3.30
2019-01-23T23:07:51.280Z,3.80
2019-01-23T23:10:20.434Z,3.90
2019-01-23T23:12:49.098Z,3.67
2019-01-23T23:15:17.868Z,3.10
2019-01-23T23:17:46.941Z,3.03
2019-01-23T23:20:15.913Z,2.00
2019-01-23T23:22:44.585Z,2.07
2019-01-23T23:25:14.139Z,1.70
2019-01-23T23:27:42.813Z,1.60
2019-01-23T23:30:14.395Z,1.30
2019-01-23T23:32:43.306Z,1.13
2019-01-23T23:35:12.877Z,1.03
2019-01-23T23:37:41.554Z,1.30
2019-01-23T23:40:12.791Z,0.90
2019-01-23T23:42:41.456Z,0.80
2019-01-23T23:45:12.694Z,1.20
2019-01-23T23:47:41.516Z,1.00
2019-01-23T23:50:18.244Z,0.70
2019-01-23T23:52:47.143Z,0.70
2019-01-23T23:55:16.512Z,0.57
2019-01-23T23:57:45.775Z,0.63
